Tuesday, March 19, 2019, 11:40 PM EDT
Back to Local

KBLM, Belmar-farmingdale

Location: Farmingdale, NJ, United States Lat: 40.183
Local Time: 11:40 PM EDT ( 3:40 GMT) Lon: -74.133
Time Zone: US/Eastern Elev: 157 ft

Show me the last for .
Show Coded

Time T Td Feel RH Dir Speed Gust Alt SLP Vis Weather Sky Remarks
2019-03-19 22:56 36 27 32 69 210° 5 - 30.43 30.45 10 CLR None
2019-03-19 21:56 36 25 32 63 200° 5 - 30.43 30.45 10 CLR None
2019-03-19 20:56 38 24 34 56 190° 5 - 30.42 30.44 10 CLR None
2019-03-19 19:56 39 23 35 52 170° 6 - 30.41 30.43 10 CLR 6-hr Min Temp (8pm): 39.0°F
6-hr Max Temp (8pm): 48.0°F
2019-03-19 18:56 41 22 36 46 150° 8 - 30.40 30.42 10 CLR None
2019-03-19 17:56 43 19 37 37 150° 10 - 30.39 30.40 10 SCT080 None
2019-03-19 16:56 43 19 39 37 140° 6 - 30.40 30.41 10 FEW080 None
2019-03-19 15:56 46 21 41 36 120° 12 - 30.40 30.42 10 BKN080 None
2019-03-19 14:56 45 21 42 38 Variable 6 - 30.40 30.42 10 SCT080 None
2019-03-19 13:56 46 21 - 36 - Calm - 30.42 30.44 10 OVC070 6-hr Min Temp (2pm): 30.9°F
6-hr Max Temp (2pm): 48.0°F
2019-03-19 12:56 45 16 44 30 Variable 3 - 30.44 30.46 10 CLR None
2019-03-19 11:56 44 18 39 34 290° 9 - 30.45 30.47 10 CLR None
2019-03-19 10:56 43 21 39 41 300° 7 - 30.45 30.47 10 CLR None
2019-03-19 09:56 40 20 36 44 330° 6 - 30.46 30.47 10 CLR None
2019-03-19 08:56 37 24 34 59 310° 3 - 30.46 30.47 10 CLR None
2019-03-19 07:56 31 22 26 68 330° 5 - 30.43 30.45 10 CLR 6-hr Min Temp (8am): 26.1°F
6-hr Max Temp (8am): 30.9°F
2019-03-19 06:56 28 20 22 71 310° 6 - 30.41 30.43 10 CLR None
2019-03-19 05:56 28 21 23 74 320° 5 - 30.39 30.41 10 SCT080 None
2019-03-19 04:56 29 22 23 74 310° 6 - 30.37 30.39 10 CLR None
2019-03-19 03:56 28 24 23 84 280° 5 - 30.36 30.37 10 FEW085 None
2019-03-19 02:56 29 24 - 81 - Calm - 30.37 30.38 10 OVC080 None
2019-03-19 01:56 30 25 25 81 260° 5 - 30.37 30.38 10 CLR 6-hr Min Temp (2am): 28.9°F
6-hr Max Temp (2am): 37.9°F
2019-03-19 00:56 31 25 25 78 240° 6 - 30.35 30.37 10 CLR 24-hr Min Temp (1am): 26.1°F
24-hr Max Temp (1am): 46.0°F
2019-03-18 23:56 33 25 27 71 220° 7 - 30.35 30.37 10 CLR None

Support USWX by starting your Amazon purchase here.